sensor_id;sensor_type;location;lat;lon;timestamp;temperature;humidity
5059;DHT22;2548;52.050;11.036;2022-12-19T00:01:18;-3.20;99.90
5059;DHT22;2548;52.050;11.036;2022-12-19T00:03:47;-3.20;99.90
5059;DHT22;2548;52.050;11.036;2022-12-19T00:06:15;-3.10;99.90
5059;DHT22;2548;52.050;11.036;2022-12-19T00:08:46;-3.10;99.90
5059;DHT22;2548;52.050;11.036;2022-12-19T00:11:15;-3.10;99.90
5059;DHT22;2548;52.050;11.036;2022-12-19T00:13:43;-3.10;99.90
5059;DHT22;2548;52.050;11.036;2022-12-19T00:16:13;-3.10;99.90
5059;DHT22;2548;52.050;11.036;2022-12-19T00:18:42;-3.10;99.90
5059;DHT22;2548;52.050;11.036;2022-12-19T00:21:11;-3.00;99.90
5059;DHT22;2548;52.050;11.036;2022-12-19T00:23:39;-3.00;99.90
5059;DHT22;2548;52.050;11.036;2022-12-19T00:26:10;-2.90;99.90
5059;DHT22;2548;52.050;11.036;2022-12-19T00:28:42;-2.90;99.90
5059;DHT22;2548;52.050;11.036;2022-12-19T00:31:13;-2.90;99.90
5059;DHT22;2548;52.050;11.036;2022-12-19T00:33:41;-2.90;99.90
5059;DHT22;2548;52.050;11.036;2022-12-19T00:36:11;-2.80;99.90
5059;DHT22;2548;52.050;11.036;2022-12-19T00:38:42;-2.80;99.90
5059;DHT22;2548;52.050;11.036;2022-12-19T00:41:13;-2.70;99.90
5059;DHT22;2548;52.050;11.036;2022-12-19T00:43:41;-2.70;99.90
5059;DHT22;2548;52.050;11.036;2022-12-19T00:46:11;-2.70;99.90
5059;DHT22;2548;52.050;11.036;2022-12-19T00:48:40;-2.70;99.90
5059;DHT22;2548;52.050;11.036;2022-12-19T00:51:10;-2.70;99.90
5059;DHT22;2548;52.050;11.036;2022-12-19T00:53:41;-2.70;99.90
5059;DHT22;2548;52.050;11.036;2022-12-19T00:56:12;-2.70;99.90
5059;DHT22;2548;52.050;11.036;2022-12-19T00:58:40;-2.60;99.90
5059;DHT22;2548;52.050;11.036;2022-12-19T01:01:11;-2.60;99.90
5059;DHT22;2548;52.050;11.036;2022-12-19T01:03:39;-2.50;99.90
5059;DHT22;2548;52.050;11.036;2022-12-19T01:06:07;-2.50;99.90
5059;DHT22;2548;52.050;11.036;2022-12-19T01:08:35;-2.50;99.90
5059;DHT22;2548;52.050;11.036;2022-12-19T01:11:04;-2.40;99.90
5059;DHT22;2548;52.050;11.036;2022-12-19T01:13:34;-2.40;99.90
5059;DHT22;2548;52.050;11.036;2022-12-19T01:16:01;-2.30;99.90
5059;DHT22;2548;52.050;11.036;2022-12-19T01:18:29;-2.30;99.90
5059;DHT22;2548;52.050;11.036;2022-12-19T01:21:03;-2.20;99.90
5059;DHT22;2548;52.050;11.036;2022-12-19T01:23:33;-2.20;99.90
5059;DHT22;2548;52.050;11.036;2022-12-19T01:26:01;-2.10;99.90
5059;DHT22;2548;52.050;11.036;2022-12-19T01:28:29;-2.10;99.90
5059;DHT22;2548;52.050;11.036;2022-12-19T01:30:58;-2.10;99.90
5059;DHT22;2548;52.050;11.036;2022-12-19T01:33:26;-2.10;99.90
5059;DHT22;2548;52.050;11.036;2022-12-19T01:35:53;-2.10;99.90
5059;DHT22;2548;52.050;11.036;2022-12-19T01:38:20;-2.10;99.90
5059;DHT22;2548;52.050;11.036;2022-12-19T01:40:50;-2.10;99.90
5059;DHT22;2548;52.050;11.036;2022-12-19T01:43:19;-2.20;99.90
5059;DHT22;2548;52.050;11.036;2022-12-19T01:45:53;-2.20;99.90
5059;DHT22;2548;52.050;11.036;2022-12-19T01:48:31;-2.20;99.90
5059;DHT22;2548;52.050;11.036;2022-12-19T01:51:02;-2.20;99.90
5059;DHT22;2548;52.050;11.036;2022-12-19T01:53:34;-2.20;99.90
5059;DHT22;2548;52.050;11.036;2022-12-19T01:56:06;-2.20;99.90
5059;DHT22;2548;52.050;11.036;2022-12-19T01:58:35;-2.30;99.90
5059;DHT22;2548;52.050;11.036;2022-12-19T02:01:04;-2.30;99.90
5059;DHT22;2548;52.050;11.036;2022-12-19T02:03:35;-2.20;99.90
5059;DHT22;2548;52.050;11.036;2022-12-19T02:06:05;-2.20;99.90
5059;DHT22;2548;52.050;11.036;2022-12-19T02:08:33;-2.10;99.90
5059;DHT22;2548;52.050;11.036;2022-12-19T02:11:02;-2.20;99.90
5059;DHT22;2548;52.050;11.036;2022-12-19T02:13:29;-2.20;99.90
5059;DHT22;2548;52.050;11.036;2022-12-19T02:16:00;-2.10;99.90
5059;DHT22;2548;52.050;11.036;2022-12-19T02:18:37;-2.10;99.90
5059;DHT22;2548;52.050;11.036;2022-12-19T02:21:28;-2.00;99.90
5059;DHT22;2548;52.050;11.036;2022-12-19T02:24:15;-2.00;99.90
5059;DHT22;2548;52.050;11.036;2022-12-19T02:27:08;-1.90;99.90
5059;DHT22;2548;52.050;11.036;2022-12-19T02:30:06;-1.80;99.90
5059;DHT22;2548;52.050;11.036;2022-12-19T02:32:48;-1.80;99.90
5059;DHT22;2548;52.050;11.036;2022-12-19T02:35:28;-1.80;99.90
5059;DHT22;2548;52.050;11.036;2022-12-19T02:38:04;-1.80;99.90
5059;DHT22;2548;52.050;11.036;2022-12-19T02:40:40;-1.80;99.90
5059;DHT22;2548;52.050;11.036;2022-12-19T02:43:11;-1.80;99.90
5059;DHT22;2548;52.050;11.036;2022-12-19T02:45:41;-1.80;99.90
5059;DHT22;2548;52.050;11.036;2022-12-19T02:48:11;-1.80;99.90
5059;DHT22;2548;52.050;11.036;2022-12-19T02:50:41;-1.80;99.90
5059;DHT22;2548;52.050;11.036;2022-12-19T02:53:13;-1.80;99.90
5059;DHT22;2548;52.050;11.036;2022-12-19T02:55:45;-1.80;99.90
5059;DHT22;2548;52.050;11.036;2022-12-19T02:58:35;-1.80;99.90
5059;DHT22;2548;52.050;11.036;2022-12-19T03:01:14;-1.70;99.90
5059;DHT22;2548;52.050;11.036;2022-12-19T03:03:53;-1.70;99.90
5059;DHT22;2548;52.050;11.036;2022-12-19T03:06:27;-1.60;99.90
5059;DHT22;2548;52.050;11.036;2022-12-19T03:09:02;-1.60;99.90
5059;DHT22;2548;52.050;11.036;2022-12-19T03:11:35;-1.60;99.90
5059;DHT22;2548;52.050;11.036;2022-12-19T03:14:06;-1.60;99.90
5059;DHT22;2548;52.050;11.036;2022-12-19T03:16:35;-1.60;99.90
5059;DHT22;2548;52.050;11.036;2022-12-19T03:19:05;-1.50;99.90
5059;DHT22;2548;52.050;11.036;2022-12-19T03:21:36;-1.50;99.90
5059;DHT22;2548;52.050;11.036;2022-12-19T03:24:06;-1.50;99.90
5059;DHT22;2548;52.050;11.036;2022-12-19T03:26:39;-1.50;99.90
5059;DHT22;2548;52.050;11.036;2022-12-19T03:29:10;-1.40;99.90
5059;DHT22;2548;52.050;11.036;2022-12-19T03:31:41;-1.40;99.90
5059;DHT22;2548;52.050;11.036;2022-12-19T03:34:15;-1.40;99.90
5059;DHT22;2548;52.050;11.036;2022-12-19T03:36:46;-1.40;99.90
5059;DHT22;2548;52.050;11.036;2022-12-19T03:39:15;-1.40;99.90
5059;DHT22;2548;52.050;11.036;2022-12-19T03:41:44;-1.40;99.90
5059;DHT22;2548;52.050;11.036;2022-12-19T03:44:31;-1.40;99.90
5059;DHT22;2548;52.050;11.036;2022-12-19T03:47:05;-1.30;99.90
5059;DHT22;2548;52.050;11.036;2022-12-19T03:49:36;-1.30;99.90
5059;DHT22;2548;52.050;11.036;2022-12-19T03:52:10;-1.30;99.90
5059;DHT22;2548;52.050;11.036;2022-12-19T03:54:40;-1.20;99.90
5059;DHT22;2548;52.050;11.036;2022-12-19T03:57:15;-1.20;99.90
5059;DHT22;2548;52.050;11.036;2022-12-19T03:59:47;-1.20;99.90
5059;DHT22;2548;52.050;11.036;2022-12-19T04:02:17;-1.20;99.90
5059;DHT22;2548;52.050;11.036;2022-12-19T04:04:51;-1.10;99.90
5059;DHT22;2548;52.050;11.036;2022-12-19T04:07:19;-1.20;99.90
5059;DHT22;2548;52.050;11.036;2022-12-19T04:09:48;-1.10;99.90
5059;DHT22;2548;52.050;11.036;2022-12-19T04:12:19;-1.00;99.90
5059;DHT22;2548;52.050;11.036;2022-12-19T04:14:48;-1.00;99.90
5059;DHT22;2548;52.050;11.036;2022-12-19T04:17:21;-1.00;99.90
5059;DHT22;2548;52.050;11.036;2022-12-19T04:19:58;-0.90;99.90
5059;DHT22;2548;52.050;11.036;2022-12-19T04:22:30;-0.80;99.90
5059;DHT22;2548;52.050;11.036;2022-12-19T04:24:59;-0.80;99.90
5059;DHT22;2548;52.050;11.036;2022-12-19T04:27:31;-0.70;99.90
5059;DHT22;2548;52.050;11.036;2022-12-19T04:30:01;-0.60;99.90
5059;DHT22;2548;52.050;11.036;2022-12-19T04:32:32;-0.60;99.90
5059;DHT22;2548;52.050;11.036;2022-12-19T04:35:02;-0.60;99.90
5059;DHT22;2548;52.050;11.036;2022-12-19T04:37:30;-0.50;99.90
5059;DHT22;2548;52.050;11.036;2022-12-19T04:39:57;-0.50;99.90
5059;DHT22;2548;52.050;11.036;2022-12-19T04:42:25;-0.50;99.90
5059;DHT22;2548;52.050;11.036;2022-12-19T04:44:53;-0.50;99.90
5059;DHT22;2548;52.050;11.036;2022-12-19T04:47:20;-0.40;99.90
5059;DHT22;2548;52.050;11.036;2022-12-19T04:49:48;-0.40;99.90
5059;DHT22;2548;52.050;11.036;2022-12-19T04:52:17;-0.30;99.90
5059;DHT22;2548;52.050;11.036;2022-12-19T04:54:44;-0.30;99.90
5059;DHT22;2548;52.050;11.036;2022-12-19T04:57:11;-0.20;99.90
5059;DHT22;2548;52.050;11.036;2022-12-19T04:59:39;-0.20;99.90
5059;DHT22;2548;52.050;11.036;2022-12-19T05:02:06;-0.20;99.90
5059;DHT22;2548;52.050;11.036;2022-12-19T05:04:34;-0.20;99.90
5059;DHT22;2548;52.050;11.036;2022-12-19T05:07:01;-0.30;99.90
5059;DHT22;2548;52.050;11.036;2022-12-19T05:09:30;-0.20;99.90
5059;DHT22;2548;52.050;11.036;2022-12-19T05:11:57;-0.20;99.90
5059;DHT22;2548;52.050;11.036;2022-12-19T05:14:25;-0.20;99.90
5059;DHT22;2548;52.050;11.036;2022-12-19T05:16:52;-0.20;99.90
5059;DHT22;2548;52.050;11.036;2022-12-19T05:19:21;-0.20;99.90
5059;DHT22;2548;52.050;11.036;2022-12-19T05:21:48;-0.10;99.90
5059;DHT22;2548;52.050;11.036;2022-12-19T05:24:16;-0.10;99.90
5059;DHT22;2548;52.050;11.036;2022-12-19T05:26:45;0.00;99.90
5059;DHT22;2548;52.050;11.036;2022-12-19T05:29:14;-0.10;99.90
5059;DHT22;2548;52.050;11.036;2022-12-19T05:31:41;0.00;99.90
5059;DHT22;2548;52.050;11.036;2022-12-19T05:34:09;0.10;99.90
5059;DHT22;2548;52.050;11.036;2022-12-19T05:36:36;0.20;99.90
5059;DHT22;2548;52.050;11.036;2022-12-19T05:39:04;0.30;99.90
5059;DHT22;2548;52.050;11.036;2022-12-19T05:41:31;0.40;99.90
5059;DHT22;2548;52.050;11.036;2022-12-19T05:44:00;0.40;99.90
5059;DHT22;2548;52.050;11.036;2022-12-19T05:46:27;0.50;99.90
5059;DHT22;2548;52.050;11.036;2022-12-19T05:48:55;0.60;99.90
5059;DHT22;2548;52.050;11.036;2022-12-19T05:51:22;0.80;99.90
5059;DHT22;2548;52.050;11.036;2022-12-19T05:53:50;0.90;99.90
5059;DHT22;2548;52.050;11.036;2022-12-19T05:56:19;1.00;99.90
5059;DHT22;2548;52.050;11.036;2022-12-19T05:58:47;1.00;99.90
5059;DHT22;2548;52.050;11.036;2022-12-19T06:01:19;1.10;99.90
5059;DHT22;2548;52.050;11.036;2022-12-19T06:03:47;1.00;99.90
5059;DHT22;2548;52.050;11.036;2022-12-19T06:06:18;1.00;99.90
5059;DHT22;2548;52.050;11.036;2022-12-19T06:08:45;1.00;99.90
5059;DHT22;2548;52.050;11.036;2022-12-19T06:11:13;1.00;99.90
5059;DHT22;2548;52.050;11.036;2022-12-19T06:13:41;1.10;99.90
5059;DHT22;2548;52.050;11.036;2022-12-19T06:16:13;1.10;99.90
5059;DHT22;2548;52.050;11.036;2022-12-19T06:18:52;1.20;99.90
5059;DHT22;2548;52.050;11.036;2022-12-19T06:21:21;1.30;99.90
5059;DHT22;2548;52.050;11.036;2022-12-19T06:23:49;1.40;99.90
5059;DHT22;2548;52.050;11.036;2022-12-19T06:26:18;1.40;99.90
5059;DHT22;2548;52.050;11.036;2022-12-19T06:28:45;1.50;99.90
5059;DHT22;2548;52.050;11.036;2022-12-19T06:31:13;1.60;99.90
5059;DHT22;2548;52.050;11.036;2022-12-19T06:33:41;1.70;99.90
5059;DHT22;2548;52.050;11.036;2022-12-19T06:36:19;1.70;99.90
5059;DHT22;2548;52.050;11.036;2022-12-19T06:38:47;1.70;99.90
5059;DHT22;2548;52.050;11.036;2022-12-19T06:41:15;1.70;99.90
5059;DHT22;2548;52.050;11.036;2022-12-19T06:44:03;1.80;99.90
5059;DHT22;2548;52.050;11.036;2022-12-19T06:46:31;1.80;99.90
5059;DHT22;2548;52.050;11.036;2022-12-19T06:48:58;1.90;99.90
5059;DHT22;2548;52.050;11.036;2022-12-19T06:51:28;1.90;99.90
5059;DHT22;2548;52.050;11.036;2022-12-19T06:53:55;1.90;99.90
5059;DHT22;2548;52.050;11.036;2022-12-19T06:56:23;1.90;99.90
5059;DHT22;2548;52.050;11.036;2022-12-19T06:58:50;1.90;99.90
5059;DHT22;2548;52.050;11.036;2022-12-19T07:01:19;1.90;99.90
5059;DHT22;2548;52.050;11.036;2022-12-19T07:03:48;1.90;99.90
5059;DHT22;2548;52.050;11.036;2022-12-19T07:06:16;1.90;99.90
5059;DHT22;2548;52.050;11.036;2022-12-19T07:08:44;1.80;99.90
5059;DHT22;2548;52.050;11.036;2022-12-19T07:11:12;1.80;99.90
5059;DHT22;2548;52.050;11.036;2022-12-19T07:13:39;1.90;99.90
5059;DHT22;2548;52.050;11.036;2022-12-19T07:16:07;1.90;99.90
5059;DHT22;2548;52.050;11.036;2022-12-19T07:18:37;2.00;99.90
5059;DHT22;2548;52.050;11.036;2022-12-19T07:21:05;2.10;99.90
5059;DHT22;2548;52.050;11.036;2022-12-19T07:23:34;2.10;99.90
5059;DHT22;2548;52.050;11.036;2022-12-19T07:26:03;2.20;99.90
5059;DHT22;2548;52.050;11.036;2022-12-19T07:28:32;2.10;99.90
5059;DHT22;2548;52.050;11.036;2022-12-19T07:31:00;2.10;99.90
5059;DHT22;2548;52.050;11.036;2022-12-19T07:33:27;2.10;99.90
5059;DHT22;2548;52.050;11.036;2022-12-19T07:35:55;2.10;99.90
5059;DHT22;2548;52.050;11.036;2022-12-19T07:38:22;2.10;99.90
5059;DHT22;2548;52.050;11.036;2022-12-19T07:40:50;2.10;99.90
5059;DHT22;2548;52.050;11.036;2022-12-19T07:43:18;2.20;99.90
5059;DHT22;2548;52.050;11.036;2022-12-19T07:45:46;2.10;99.90
5059;DHT22;2548;52.050;11.036;2022-12-19T07:48:19;2.00;99.90
5059;DHT22;2548;52.050;11.036;2022-12-19T07:50:47;2.00;99.90
5059;DHT22;2548;52.050;11.036;2022-12-19T07:53:14;2.00;99.90
5059;DHT22;2548;52.050;11.036;2022-12-19T07:55:42;1.90;99.90
5059;DHT22;2548;52.050;11.036;2022-12-19T07:58:09;1.90;99.90
5059;DHT22;2548;52.050;11.036;2022-12-19T08:00:41;1.90;99.90
5059;DHT22;2548;52.050;11.036;2022-12-19T08:03:08;1.90;99.90
5059;DHT22;2548;52.050;11.036;2022-12-19T08:05:35;2.00;99.90
5059;DHT22;2548;52.050;11.036;2022-12-19T08:08:03;2.00;99.90
5059;DHT22;2548;52.050;11.036;2022-12-19T08:10:30;2.00;99.90
5059;DHT22;2548;52.050;11.036;2022-12-19T08:12:58;2.10;99.90
5059;DHT22;2548;52.050;11.036;2022-12-19T08:15:25;2.00;99.90
5059;DHT22;2548;52.050;11.036;2022-12-19T08:17:54;2.00;99.90
5059;DHT22;2548;52.050;11.036;2022-12-19T08:20:22;1.90;99.90
5059;DHT22;2548;52.050;11.036;2022-12-19T08:22:49;1.90;99.90
5059;DHT22;2548;52.050;11.036;2022-12-19T08:25:16;1.90;99.90
5059;DHT22;2548;52.050;11.036;2022-12-19T08:27:44;1.90;99.90
5059;DHT22;2548;52.050;11.036;2022-12-19T08:30:12;1.90;99.90
5059;DHT22;2548;52.050;11.036;2022-12-19T08:32:40;1.90;99.90
5059;DHT22;2548;52.050;11.036;2022-12-19T08:35:09;1.90;99.90
5059;DHT22;2548;52.050;11.036;2022-12-19T08:37:36;1.90;99.90
5059;DHT22;2548;52.050;11.036;2022-12-19T08:40:05;2.00;99.90
5059;DHT22;2548;52.050;11.036;2022-12-19T08:42:33;2.00;99.90
5059;DHT22;2548;52.050;11.036;2022-12-19T08:45:01;2.00;99.90
5059;DHT22;2548;52.050;11.036;2022-12-19T08:47:28;2.00;99.90
5059;DHT22;2548;52.050;11.036;2022-12-19T08:49:55;2.00;99.90
5059;DHT22;2548;52.050;11.036;2022-12-19T08:52:24;2.00;99.90
5059;DHT22;2548;52.050;11.036;2022-12-19T08:54:52;2.10;99.90
5059;DHT22;2548;52.050;11.036;2022-12-19T08:57:19;2.10;99.90
5059;DHT22;2548;52.050;11.036;2022-12-19T08:59:47;2.10;99.90
5059;DHT22;2548;52.050;11.036;2022-12-19T09:02:14;2.20;99.90
5059;DHT22;2548;52.050;11.036;2022-12-19T09:04:42;2.20;99.90
5059;DHT22;2548;52.050;11.036;2022-12-19T09:07:09;2.30;99.90
5059;DHT22;2548;52.050;11.036;2022-12-19T09:09:39;2.30;99.90
5059;DHT22;2548;52.050;11.036;2022-12-19T09:12:06;2.30;99.90
5059;DHT22;2548;52.050;11.036;2022-12-19T09:14:34;2.20;99.90
5059;DHT22;2548;52.050;11.036;2022-12-19T09:17:02;2.20;99.90
5059;DHT22;2548;52.050;11.036;2022-12-19T09:19:29;2.20;99.90
5059;DHT22;2548;52.050;11.036;2022-12-19T09:21:57;2.30;99.90
5059;DHT22;2548;52.050;11.036;2022-12-19T09:24:24;2.30;99.90
5059;DHT22;2548;52.050;11.036;2022-12-19T09:26:53;2.30;99.90
5059;DHT22;2548;52.050;11.036;2022-12-19T09:29:21;2.40;99.90
5059;DHT22;2548;52.050;11.036;2022-12-19T09:31:49;2.40;99.90
5059;DHT22;2548;52.050;11.036;2022-12-19T09:34:17;2.50;99.90
5059;DHT22;2548;52.050;11.036;2022-12-19T09:36:44;2.50;99.90
5059;DHT22;2548;52.050;11.036;2022-12-19T09:39:12;2.50;99.90
5059;DHT22;2548;52.050;11.036;2022-12-19T09:42:00;2.50;99.90
5059;DHT22;2548;52.050;11.036;2022-12-19T09:44:49;2.50;99.90
5059;DHT22;2548;52.050;11.036;2022-12-19T09:47:22;2.50;99.90
5059;DHT22;2548;52.050;11.036;2022-12-19T09:49:51;2.50;99.90
5059;DHT22;2548;52.050;11.036;2022-12-19T09:52:23;2.50;99.90
5059;DHT22;2548;52.050;11.036;2022-12-19T09:54:56;2.50;99.90
5059;DHT22;2548;52.050;11.036;2022-12-19T09:57:33;2.60;99.90
5059;DHT22;2548;52.050;11.036;2022-12-19T10:00:05;2.70;99.90
5059;DHT22;2548;52.050;11.036;2022-12-19T10:02:38;2.70;99.90
5059;DHT22;2548;52.050;11.036;2022-12-19T10:05:13;2.70;99.90
5059;DHT22;2548;52.050;11.036;2022-12-19T10:07:42;2.70;99.90
5059;DHT22;2548;52.050;11.036;2022-12-19T10:10:14;2.70;99.90
5059;DHT22;2548;52.050;11.036;2022-12-19T10:12:56;2.70;99.90
5059;DHT22;2548;52.050;11.036;2022-12-19T10:15:31;2.70;99.90
5059;DHT22;2548;52.050;11.036;2022-12-19T10:18:14;2.80;99.90
5059;DHT22;2548;52.050;11.036;2022-12-19T10:20:46;2.80;99.90
5059;DHT22;2548;52.050;11.036;2022-12-19T10:23:34;2.80;99.90
5059;DHT22;2548;52.050;11.036;2022-12-19T10:26:11;2.80;99.90
5059;DHT22;2548;52.050;11.036;2022-12-19T10:28:54;2.80;99.90
5059;DHT22;2548;52.050;11.036;2022-12-19T10:31:28;2.80;99.90
5059;DHT22;2548;52.050;11.036;2022-12-19T10:34:00;2.80;99.90
5059;DHT22;2548;52.050;11.036;2022-12-19T10:36:31;2.70;99.90
5059;DHT22;2548;52.050;11.036;2022-12-19T10:39:10;2.70;99.90
5059;DHT22;2548;52.050;11.036;2022-12-19T10:41:41;2.70;99.90
5059;DHT22;2548;52.050;11.036;2022-12-19T10:44:13;2.70;99.90
5059;DHT22;2548;52.050;11.036;2022-12-19T10:46:42;2.70;99.90
5059;DHT22;2548;52.050;11.036;2022-12-19T10:49:13;2.70;99.90
5059;DHT22;2548;52.050;11.036;2022-12-19T10:51:51;2.70;99.90
5059;DHT22;2548;52.050;11.036;2022-12-19T10:54:19;2.70;99.90
5059;DHT22;2548;52.050;11.036;2022-12-19T10:56:48;2.70;99.90
5059;DHT22;2548;52.050;11.036;2022-12-19T10:59:19;2.70;99.90
5059;DHT22;2548;52.050;11.036;2022-12-19T11:01:47;2.70;99.90
5059;DHT22;2548;52.050;11.036;2022-12-19T11:04:28;2.80;99.90
5059;DHT22;2548;52.050;11.036;2022-12-19T11:07:18;2.80;99.90
5059;DHT22;2548;52.050;11.036;2022-12-19T11:09:45;2.80;99.90
5059;DHT22;2548;52.050;11.036;2022-12-19T11:12:15;2.80;99.90
5059;DHT22;2548;52.050;11.036;2022-12-19T11:14:50;2.80;99.90
5059;DHT22;2548;52.050;11.036;2022-12-19T11:17:25;2.90;99.90
5059;DHT22;2548;52.050;11.036;2022-12-19T11:19:55;2.90;99.90
5059;DHT22;2548;52.050;11.036;2022-12-19T11:22:24;2.90;99.90
5059;DHT22;2548;52.050;11.036;2022-12-19T11:24:53;3.00;99.90
5059;DHT22;2548;52.050;11.036;2022-12-19T11:27:36;3.00;99.90
5059;DHT22;2548;52.050;11.036;2022-12-19T11:30:19;3.00;99.90
5059;DHT22;2548;52.050;11.036;2022-12-19T11:32:48;3.20;99.90
5059;DHT22;2548;52.050;11.036;2022-12-19T11:35:19;3.30;99.90
5059;DHT22;2548;52.050;11.036;2022-12-19T11:37:50;3.40;99.90
5059;DHT22;2548;52.050;11.036;2022-12-19T11:40:30;3.50;99.90
5059;DHT22;2548;52.050;11.036;2022-12-19T11:43:01;3.60;99.90
5059;DHT22;2548;52.050;11.036;2022-12-19T11:45:38;3.60;99.90
5059;DHT22;2548;52.050;11.036;2022-12-19T11:48:12;3.60;99.90
5059;DHT22;2548;52.050;11.036;2022-12-19T11:50:53;3.70;99.90
5059;DHT22;2548;52.050;11.036;2022-12-19T11:53:27;3.70;99.90
5059;DHT22;2548;52.050;11.036;2022-12-19T11:55:59;3.70;99.90
5059;DHT22;2548;52.050;11.036;2022-12-19T11:58:29;3.70;99.90
5059;DHT22;2548;52.050;11.036;2022-12-19T12:01:04;3.80;99.90
5059;DHT22;2548;52.050;11.036;2022-12-19T12:03:49;3.80;99.90
5059;DHT22;2548;52.050;11.036;2022-12-19T12:06:21;3.90;99.90
5059;DHT22;2548;52.050;11.036;2022-12-19T12:08:57;3.90;99.90
5059;DHT22;2548;52.050;11.036;2022-12-19T12:11:32;3.90;99.90
5059;DHT22;2548;52.050;11.036;2022-12-19T12:14:15;3.90;99.90
5059;DHT22;2548;52.050;11.036;2022-12-19T12:16:58;4.00;99.90
5059;DHT22;2548;52.050;11.036;2022-12-19T12:19:40;4.10;99.90
5059;DHT22;2548;52.050;11.036;2022-12-19T12:22:26;4.20;99.90
5059;DHT22;2548;52.050;11.036;2022-12-19T12:25:01;4.20;99.90
5059;DHT22;2548;52.050;11.036;2022-12-19T12:27:41;4.30;99.90
5059;DHT22;2548;52.050;11.036;2022-12-19T12:30:15;4.30;99.90
5059;DHT22;2548;52.050;11.036;2022-12-19T12:32:53;4.40;99.90
5059;DHT22;2548;52.050;11.036;2022-12-19T12:35:32;4.40;99.90
5059;DHT22;2548;52.050;11.036;2022-12-19T12:38:15;4.40;99.90
5059;DHT22;2548;52.050;11.036;2022-12-19T12:40:56;4.40;99.90
5059;DHT22;2548;52.050;11.036;2022-12-19T12:43:42;4.50;99.90
5059;DHT22;2548;52.050;11.036;2022-12-19T12:46:16;4.50;99.90
5059;DHT22;2548;52.050;11.036;2022-12-19T12:48:50;4.50;99.90
5059;DHT22;2548;52.050;11.036;2022-12-19T12:51:20;4.50;99.90
5059;DHT22;2548;52.050;11.036;2022-12-19T12:53:53;4.50;99.90
5059;DHT22;2548;52.050;11.036;2022-12-19T12:56:21;4.60;99.90
5059;DHT22;2548;52.050;11.036;2022-12-19T12:59:05;4.60;99.90
5059;DHT22;2548;52.050;11.036;2022-12-19T13:01:35;4.70;99.90
5059;DHT22;2548;52.050;11.036;2022-12-19T13:04:16;4.70;99.90
5059;DHT22;2548;52.050;11.036;2022-12-19T13:09:51;4.60;99.90
5059;DHT22;2548;52.050;11.036;2022-12-19T13:12:24;4.60;99.90
5059;DHT22;2548;52.050;11.036;2022-12-19T13:15:28;4.60;99.90
5059;DHT22;2548;52.050;11.036;2022-12-19T13:18:08;4.60;99.90
5059;DHT22;2548;52.050;11.036;2022-12-19T13:20:42;4.60;99.90
5059;DHT22;2548;52.050;11.036;2022-12-19T13:23:22;4.60;99.90
5059;DHT22;2548;52.050;11.036;2022-12-19T13:25:58;4.60;99.90
5059;DHT22;2548;52.050;11.036;2022-12-19T13:28:38;4.50;99.90
5059;DHT22;2548;52.050;11.036;2022-12-19T13:31:21;4.60;99.90
5059;DHT22;2548;52.050;11.036;2022-12-19T13:34:15;4.60;99.90
5059;DHT22;2548;52.050;11.036;2022-12-19T13:36:46;4.60;99.90
5059;DHT22;2548;52.050;11.036;2022-12-19T13:39:29;4.60;99.90
5059;DHT22;2548;52.050;11.036;2022-12-19T13:42:11;4.70;99.90
5059;DHT22;2548;52.050;11.036;2022-12-19T13:45:00;4.60;99.90
5059;DHT22;2548;52.050;11.036;2022-12-19T13:47:34;4.60;99.90
5059;DHT22;2548;52.050;11.036;2022-12-19T13:50:05;4.60;99.90
5059;DHT22;2548;52.050;11.036;2022-12-19T13:52:35;4.60;99.90
5059;DHT22;2548;52.050;11.036;2022-12-19T13:55:12;4.60;99.90
5059;DHT22;2548;52.050;11.036;2022-12-19T13:57:40;4.60;99.90
5059;DHT22;2548;52.050;11.036;2022-12-19T14:00:15;4.60;99.90
5059;DHT22;2548;52.050;11.036;2022-12-19T14:02:47;4.60;99.90
5059;DHT22;2548;52.050;11.036;2022-12-19T14:05:22;4.60;99.90
5059;DHT22;2548;52.050;11.036;2022-12-19T14:07:52;4.60;99.90
5059;DHT22;2548;52.050;11.036;2022-12-19T14:10:23;4.60;99.90
5059;DHT22;2548;52.050;11.036;2022-12-19T14:12:51;4.70;99.90
5059;DHT22;2548;52.050;11.036;2022-12-19T14:15:37;4.70;99.90
5059;DHT22;2548;52.050;11.036;2022-12-19T14:18:16;4.70;99.90
5059;DHT22;2548;52.050;11.036;2022-12-19T14:20:45;4.70;99.90
5059;DHT22;2548;52.050;11.036;2022-12-19T14:23:14;4.80;99.90
5059;DHT22;2548;52.050;11.036;2022-12-19T14:25:45;4.80;99.90
5059;DHT22;2548;52.050;11.036;2022-12-19T14:28:17;4.70;99.90
5059;DHT22;2548;52.050;11.036;2022-12-19T14:30:49;4.70;99.90
5059;DHT22;2548;52.050;11.036;2022-12-19T14:33:20;4.80;99.90
5059;DHT22;2548;52.050;11.036;2022-12-19T14:35:52;4.70;99.90
5059;DHT22;2548;52.050;11.036;2022-12-19T14:38:23;4.70;99.90
5059;DHT22;2548;52.050;11.036;2022-12-19T14:40:53;4.70;99.90
5059;DHT22;2548;52.050;11.036;2022-12-19T14:43:22;4.70;99.90
5059;DHT22;2548;52.050;11.036;2022-12-19T14:46:13;4.80;99.90
5059;DHT22;2548;52.050;11.036;2022-12-19T14:48:51;4.90;99.90
5059;DHT22;2548;52.050;11.036;2022-12-19T14:51:24;5.00;99.90
5059;DHT22;2548;52.050;11.036;2022-12-19T14:54:04;5.10;99.90
5059;DHT22;2548;52.050;11.036;2022-12-19T14:56:40;5.10;99.90
5059;DHT22;2548;52.050;11.036;2022-12-19T14:59:26;5.10;99.90
5059;DHT22;2548;52.050;11.036;2022-12-19T15:01:58;5.10;99.90
5059;DHT22;2548;52.050;11.036;2022-12-19T15:04:29;5.10;99.90
5059;DHT22;2548;52.050;11.036;2022-12-19T15:06:59;5.10;99.90
5059;DHT22;2548;52.050;11.036;2022-12-19T15:09:29;5.00;99.90
5059;DHT22;2548;52.050;11.036;2022-12-19T15:12:07;5.00;99.90
5059;DHT22;2548;52.050;11.036;2022-12-19T15:15:02;5.10;99.90
5059;DHT22;2548;52.050;11.036;2022-12-19T15:17:30;5.10;99.90
5059;DHT22;2548;52.050;11.036;2022-12-19T15:19:57;5.00;99.90
5059;DHT22;2548;52.050;11.036;2022-12-19T15:22:25;5.00;99.90
5059;DHT22;2548;52.050;11.036;2022-12-19T15:24:54;4.90;99.90
5059;DHT22;2548;52.050;11.036;2022-12-19T15:27:21;4.90;99.90
5059;DHT22;2548;52.050;11.036;2022-12-19T15:29:48;4.90;99.90
5059;DHT22;2548;52.050;11.036;2022-12-19T15:32:16;4.90;99.90
5059;DHT22;2548;52.050;11.036;2022-12-19T15:34:44;4.90;99.90
5059;DHT22;2548;52.050;11.036;2022-12-19T15:37:13;5.00;99.90
5059;DHT22;2548;52.050;11.036;2022-12-19T15:39:41;4.90;99.90
5059;DHT22;2548;52.050;11.036;2022-12-19T15:42:17;5.00;99.90
5059;DHT22;2548;52.050;11.036;2022-12-19T15:44:47;5.00;99.90
5059;DHT22;2548;52.050;11.036;2022-12-19T15:47:17;5.00;99.90
5059;DHT22;2548;52.050;11.036;2022-12-19T15:49:45;5.10;99.90
5059;DHT22;2548;52.050;11.036;2022-12-19T15:52:15;5.10;99.90
5059;DHT22;2548;52.050;11.036;2022-12-19T15:54:44;5.00;99.90
5059;DHT22;2548;52.050;11.036;2022-12-19T15:57:25;5.00;99.90
5059;DHT22;2548;52.050;11.036;2022-12-19T15:59:56;5.00;99.90
5059;DHT22;2548;52.050;11.036;2022-12-19T16:02:25;5.00;99.90
5059;DHT22;2548;52.050;11.036;2022-12-19T16:04:52;5.20;99.90
5059;DHT22;2548;52.050;11.036;2022-12-19T16:07:22;5.30;99.90
5059;DHT22;2548;52.050;11.036;2022-12-19T16:09:50;5.20;99.90
5059;DHT22;2548;52.050;11.036;2022-12-19T16:12:23;5.20;99.90
5059;DHT22;2548;52.050;11.036;2022-12-19T16:14:55;5.20;99.90
5059;DHT22;2548;52.050;11.036;2022-12-19T16:17:24;5.20;99.90
5059;DHT22;2548;52.050;11.036;2022-12-19T16:19:52;5.10;99.90
5059;DHT22;2548;52.050;11.036;2022-12-19T16:22:21;5.10;99.90
5059;DHT22;2548;52.050;11.036;2022-12-19T16:24:50;5.10;99.90
5059;DHT22;2548;52.050;11.036;2022-12-19T16:27:24;5.00;99.90
5059;DHT22;2548;52.050;11.036;2022-12-19T16:29:52;4.90;99.90